LESO

Details ICAO LESO (EAS)
Name San Sebastian
Region Spain
Timezone Europe/Madrid (UTC+2.0)
Plans Departing 302
Arriving 250
Stats Elevation 16 ft / 5 m (AMSL)
Location 43.356500° -1.790630°
Runways 1
Magnetic Variation 0.120° W
Sunrise 2019-05-20 04:39:54 UTC / 2019-05-20 06:39:54 Local
Sunset 2019-05-20 19:30:17 UTC / 2019-05-20 21:30:17 Local
Advertisement - Login to hide

Runways

ID Width Length Bearing (true/mag) Surface Threshold Overrun Markings Lighting
04 148 ft / 45 m 5,760 ft / 1,756 m 38.68° / 38.80° ASPHALT 10 ft / 3 m 0 ft / 0 m PREC-APP CENTERLINE EDGE THRESHOLD REIL-OMNI
22 148 ft / 45 m 5,760 ft / 1,756 m 218.69° / 218.81° ASPHALT 0 ft / 0 m 0 ft / 0 m PREC-APP CENTERLINE EDGE THRESHOLD REIL-OMNI

Map

Weather


0- 5 10 15 20 25 30 35+ Temperature / °C

Clouds and Precipitation
Forecast for 2019-05-20 06:00 UTC. Updated 41 minutes ago

Ground ~20,000 ft ~40,000 ft Winds

METAR

LESO 200400Z 22006KT 9999 SCT035 BKN045 11/09 Q1015

TAF

TAF LESO 192300Z 2000/2024 30009KT 8000 FEW010 SCT015 BKN035 TX16/2015Z TN10/2005Z PROB40 TEMPO 2000/2009 26015G25KT 3000 RA SHRA BKN010 BKN020TCU

Frequencies

Approach 119.85 MHz
Tower 119.85 MHz
Ground 121.70 MHz
Warning: Do not use this data for real-world aviation or navigation. No guarantee of current accuracy is given.